createdAt,value
2022-12-19T00:04:49.990Z,0
2022-12-19T00:05:30.514Z,0
2022-12-19T00:06:11.031Z,0
2022-12-19T00:06:51.574Z,0
2022-12-19T00:07:32.093Z,0
2022-12-19T00:09:44.847Z,0
2022-12-19T00:10:29.147Z,0
2022-12-19T00:11:09.697Z,0
2022-12-19T00:11:50.230Z,0
2022-12-19T00:12:30.754Z,0
2022-12-19T00:18:31.919Z,0
2022-12-19T00:19:12.439Z,0
2022-12-19T00:19:52.961Z,0
2022-12-19T00:20:33.469Z,0
2022-12-19T00:21:13.995Z,0
2022-12-19T00:21:54.512Z,0
2022-12-19T00:22:35.031Z,0
2022-12-19T00:23:15.550Z,0
2022-12-19T00:23:56.067Z,0
2022-12-19T00:24:36.581Z,0
2022-12-19T00:30:42.051Z,0
2022-12-19T00:31:22.534Z,0
2022-12-19T00:32:03.008Z,0
2022-12-19T00:32:43.493Z,0
2022-12-19T00:33:24.013Z,0
2022-12-19T00:34:04.598Z,0
2022-12-19T00:34:45.134Z,0
2022-12-19T00:35:25.655Z,0
2022-12-19T00:36:06.181Z,0
2022-12-19T00:36:46.681Z,0
2022-12-19T00:43:28.245Z,0
2022-12-19T00:44:08.747Z,0
2022-12-19T00:44:49.261Z,0
2022-12-19T00:45:30.463Z,0
2022-12-19T00:48:53.015Z,0
2022-12-19T00:49:33.539Z,0
2022-12-19T00:50:14.061Z,0
2022-12-19T00:50:54.577Z,0
2022-12-19T00:51:35.100Z,0
2022-12-19T00:52:15.612Z,0
2022-12-19T00:52:56.126Z,0
2022-12-19T00:53:36.651Z,0
2022-12-19T00:54:17.162Z,0
2022-12-19T00:54:57.771Z,0
2022-12-19T00:55:38.197Z,0
2022-12-19T01:02:23.384Z,0
2022-12-19T01:03:03.925Z,0
2022-12-19T01:03:58.342Z,0
2022-12-19T01:04:29.059Z,0
2022-12-19T01:05:05.433Z,0
2022-12-19T01:05:45.947Z,0
2022-12-19T01:06:26.467Z,0
2022-12-19T01:07:06.961Z,0
2022-12-19T01:09:23.473Z,0
2022-12-19T01:10:03.999Z,0
2022-12-19T01:10:45.675Z,0
2022-12-19T01:11:27.175Z,0
2022-12-19T01:13:41.767Z,0
2022-12-19T01:14:23.133Z,0
2022-12-19T01:15:04.132Z,0
2022-12-19T01:15:43.469Z,0
2022-12-19T01:17:43.887Z,0
2022-12-19T01:18:21.609Z,0
2022-12-19T01:19:02.135Z,0
2022-12-19T01:19:44.511Z,0
2022-12-19T01:20:29.346Z,0
2022-12-19T01:21:03.710Z,0
2022-12-19T01:21:44.260Z,0
2022-12-19T01:22:24.802Z,0
2022-12-19T01:23:05.345Z,0
2022-12-19T01:23:45.934Z,0
2022-12-19T01:29:10.833Z,0
2022-12-19T01:29:53.077Z,0
2022-12-19T01:30:32.562Z,0
2022-12-19T01:31:13.114Z,0
2022-12-19T01:31:53.711Z,0
2022-12-19T01:32:34.210Z,0
2022-12-19T01:33:14.854Z,0
2022-12-19T01:33:55.217Z,0
2022-12-19T01:34:35.750Z,0
2022-12-19T01:41:21.008Z,0
2022-12-19T01:42:01.551Z,0
2022-12-19T01:42:42.052Z,0
2022-12-19T01:43:22.604Z,0
2022-12-19T01:44:03.119Z,0
2022-12-19T01:44:43.621Z,0
2022-12-19T01:45:26.626Z,0
2022-12-19T01:46:04.742Z,0
2022-12-19T01:46:45.259Z,0
2022-12-19T01:47:25.702Z,0
2022-12-19T01:54:10.902Z,0
2022-12-19T01:54:51.427Z,0
2022-12-19T01:55:31.953Z,0
2022-12-19T01:56:13.339Z,0
2022-12-19T01:58:26.381Z,0
2022-12-19T01:59:07.084Z,0
2022-12-19T01:59:47.431Z,0
2022-12-19T02:00:27.965Z,0
2022-12-19T02:01:08.525Z,0
2022-12-19T02:01:51.433Z,0
2022-12-19T02:04:05.647Z,0
2022-12-19T02:04:46.027Z,0
2022-12-19T02:05:26.614Z,0
2022-12-19T02:06:08.139Z,0
2022-12-19T02:08:21.160Z,0
2022-12-19T02:09:01.685Z,0
2022-12-19T02:09:42.197Z,0
2022-12-19T02:10:22.715Z,0
2022-12-19T02:11:03.241Z,0
2022-12-19T02:11:43.754Z,0
2022-12-19T02:12:24.281Z,0
2022-12-19T02:14:37.525Z,0
2022-12-19T02:15:18.032Z,0
2022-12-19T02:15:58.547Z,0
2022-12-19T02:16:39.097Z,0
2022-12-19T02:17:19.590Z,0
2022-12-19T02:18:00.115Z,0
2022-12-19T02:18:40.631Z,0
2022-12-19T02:19:21.279Z,0
2022-12-19T02:20:01.661Z,0
2022-12-19T02:20:42.181Z,0
2022-12-19T02:24:01.145Z,0
2022-12-19T02:24:41.675Z,0
2022-12-19T02:25:22.197Z,0
2022-12-19T02:26:02.710Z,0
2022-12-19T02:26:43.226Z,0
2022-12-19T02:28:56.259Z,0
2022-12-19T02:29:36.762Z,0
2022-12-19T02:30:17.278Z,0
2022-12-19T02:30:57.813Z,0
2022-12-19T02:31:38.362Z,0
2022-12-19T02:32:18.843Z,0
2022-12-19T02:32:59.364Z,0
2022-12-19T02:35:13.750Z,0
2022-12-19T02:35:54.137Z,0
2022-12-19T02:36:35.799Z,0
2022-12-19T02:37:15.245Z,0
2022-12-19T02:37:55.752Z,0
2022-12-19T02:38:36.284Z,0
2022-12-19T02:39:16.828Z,0
2022-12-19T02:39:57.375Z,0
2022-12-19T02:40:37.890Z,0
2022-12-19T02:41:18.428Z,0
2022-12-19T02:45:19.212Z,0
2022-12-19T02:45:59.562Z,0
2022-12-19T02:46:40.030Z,0
2022-12-19T02:47:20.566Z,0
2022-12-19T02:48:04.602Z,0
2022-12-19T02:48:41.603Z,0
2022-12-19T02:49:24.814Z,0
2022-12-19T02:50:02.693Z,0
2022-12-19T02:50:43.298Z,0
2022-12-19T02:51:23.702Z,0
2022-12-19T02:58:05.416Z,0
2022-12-19T02:58:46.150Z,0
2022-12-19T02:59:26.502Z,0
2022-12-19T03:00:07.051Z,0
2022-12-19T03:00:47.558Z,0
2022-12-19T03:01:28.273Z,0
2022-12-19T03:02:08.784Z,0
2022-12-19T03:02:52.254Z,0
2022-12-19T03:03:29.720Z,0
2022-12-19T03:04:10.255Z,0
2022-12-19T03:10:11.319Z,0
2022-12-19T03:10:51.848Z,0
2022-12-19T03:11:32.528Z,0
2022-12-19T03:12:17.239Z,0
2022-12-19T03:12:54.273Z,0
2022-12-19T03:13:34.768Z,0
2022-12-19T03:14:15.321Z,0
2022-12-19T03:16:28.573Z,0
2022-12-19T03:17:09.094Z,0
2022-12-19T03:17:49.623Z,0
2022-12-19T03:18:30.117Z,0
2022-12-19T03:19:10.644Z,0
2022-12-19T03:19:51.175Z,0
2022-12-19T03:20:31.687Z,0
2022-12-19T03:21:12.950Z,0
2022-12-19T03:21:53.591Z,0
2022-12-19T03:28:38.653Z,0
2022-12-19T03:29:19.154Z,0
2022-12-19T03:29:59.675Z,0
2022-12-19T03:30:40.980Z,0
2022-12-19T03:32:55.221Z,0
2022-12-19T03:33:35.750Z,0
2022-12-19T03:34:16.306Z,0
2022-12-19T03:34:56.817Z,0
2022-12-19T03:35:37.371Z,0
2022-12-19T03:36:17.912Z,0
2022-12-19T03:36:58.539Z,0
2022-12-19T03:37:38.958Z,0
2022-12-19T03:38:19.470Z,0
2022-12-19T03:39:00.012Z,0
2022-12-19T03:44:24.943Z,0
2022-12-19T03:45:05.496Z,0
2022-12-19T03:45:46.109Z,0
2022-12-19T03:46:26.608Z,0
2022-12-19T03:47:07.695Z,0
2022-12-19T03:47:48.214Z,0
2022-12-19T03:48:28.749Z,0
2022-12-19T03:49:09.283Z,0
2022-12-19T03:49:49.818Z,0
2022-12-19T03:50:30.307Z,0
2022-12-19T03:56:35.203Z,0
2022-12-19T03:57:15.717Z,0
2022-12-19T03:57:56.314Z,0
2022-12-19T03:58:36.854Z,0
2022-12-19T03:59:17.374Z,0
2022-12-19T03:59:57.906Z,0
2022-12-19T04:00:38.461Z,0
2022-12-19T04:01:19.055Z,0
2022-12-19T04:01:59.630Z,0
2022-12-19T04:02:41.039Z,0
2022-12-19T04:08:42.810Z,0
2022-12-19T04:09:23.191Z,0
2022-12-19T04:10:03.717Z,0
2022-12-19T04:10:44.276Z,0
2022-12-19T04:11:24.741Z,0
2022-12-19T04:12:06.227Z,0
2022-12-19T04:12:46.677Z,0
2022-12-19T04:13:27.212Z,0
2022-12-19T04:15:40.499Z,0
2022-12-19T04:16:21.017Z,0
2022-12-19T04:17:01.491Z,0
2022-12-19T04:17:41.982Z,0
2022-12-19T04:18:22.567Z,0
2022-12-19T04:19:03.096Z,0
2022-12-19T04:19:43.615Z,0
2022-12-19T04:20:24.134Z,0
2022-12-19T04:21:04.670Z,0
2022-12-19T04:21:45.179Z,0
2022-12-19T04:28:26.993Z,0
2022-12-19T04:29:07.497Z,0
2022-12-19T04:29:48.029Z,0
2022-12-19T04:30:28.550Z,0
2022-12-19T04:31:09.138Z,0
2022-12-19T04:31:49.605Z,0
2022-12-19T04:32:30.157Z,0
2022-12-19T04:33:10.682Z,0
2022-12-19T04:33:51.242Z,0
2022-12-19T04:34:31.761Z,0
2022-12-19T04:38:36.864Z,0
2022-12-19T04:39:17.615Z,0
2022-12-19T04:39:58.028Z,0
2022-12-19T04:40:41.406Z,0
2022-12-19T04:41:19.082Z,0
2022-12-19T04:41:59.593Z,0
2022-12-19T04:42:40.147Z,0
2022-12-19T04:43:20.643Z,0
2022-12-19T04:44:02.049Z,0
2022-12-19T04:49:27.191Z,0
2022-12-19T04:50:07.727Z,0
2022-12-19T04:50:49.773Z,0
2022-12-19T04:51:31.191Z,0
2022-12-19T04:52:11.712Z,0
2022-12-19T04:56:56.869Z,0
2022-12-19T04:57:37.382Z,0
2022-12-19T04:58:21.773Z,0
2022-12-19T04:58:58.468Z,0
2022-12-19T04:59:38.971Z,0
2022-12-19T05:00:19.489Z,0
2022-12-19T05:01:00.171Z,0
2022-12-19T05:01:40.822Z,0
2022-12-19T05:02:21.382Z,0
2022-12-19T05:03:02.011Z,0
2022-12-19T05:09:44.217Z,0
2022-12-19T05:10:24.871Z,0
2022-12-19T05:11:05.293Z,0
2022-12-19T05:11:45.878Z,0
2022-12-19T05:12:26.417Z,0
2022-12-19T05:13:06.945Z,0
2022-12-19T05:13:47.490Z,0
2022-12-19T05:14:28.587Z,0
2022-12-19T05:15:09.106Z,0
2022-12-19T05:19:14.127Z,0
2022-12-19T05:19:55.299Z,0
2022-12-19T05:20:35.836Z,0
2022-12-19T05:21:16.347Z,0
2022-12-19T05:21:56.869Z,0
2022-12-19T05:22:37.390Z,0
2022-12-19T05:23:18.003Z,0
2022-12-19T05:23:58.438Z,0
2022-12-19T05:24:38.965Z,0
2022-12-19T05:30:49.238Z,0
2022-12-19T05:31:26.133Z,0
2022-12-19T05:32:07.207Z,0
2022-12-19T05:32:47.733Z,0
2022-12-19T05:33:28.249Z,0
2022-12-19T05:34:08.855Z,0
2022-12-19T05:37:30.220Z,0
2022-12-19T05:38:10.743Z,0
2022-12-19T05:38:51.271Z,0
2022-12-19T05:39:31.802Z,0
2022-12-19T05:41:48.762Z,0
2022-12-19T05:42:25.030Z,0
2022-12-19T05:43:05.543Z,0
2022-12-19T05:43:46.066Z,0
2022-12-19T05:44:26.588Z,0
2022-12-19T05:45:07.094Z,0
2022-12-19T05:45:47.615Z,0
2022-12-19T05:46:28.186Z,0
2022-12-19T05:47:08.643Z,0
2022-12-19T05:47:49.167Z,0
2022-12-19T05:53:50.541Z,0
2022-12-19T05:54:31.051Z,0
2022-12-19T05:55:11.566Z,0
2022-12-19T05:55:52.102Z,0
2022-12-19T05:56:33.370Z,0
2022-12-19T05:57:14.033Z,0
2022-12-19T05:57:54.417Z,0
2022-12-19T05:58:34.932Z,0
2022-12-19T05:59:15.472Z,0
2022-12-19T06:02:34.322Z,0
2022-12-19T06:03:14.752Z,0
2022-12-19T06:03:55.301Z,0
2022-12-19T06:04:35.775Z,0
2022-12-19T06:05:16.285Z,0
2022-12-19T06:05:56.857Z,0
2022-12-19T06:06:37.960Z,0
2022-12-19T06:07:21.004Z,0
2022-12-19T06:07:59.030Z,0
2022-12-19T06:13:59.888Z,0
2022-12-19T06:14:40.251Z,0
2022-12-19T06:15:21.438Z,0
2022-12-19T06:16:02.023Z,0
2022-12-19T06:16:42.540Z,0
2022-12-19T06:18:55.530Z,0
2022-12-19T06:19:36.047Z,0
2022-12-19T06:20:16.573Z,0
2022-12-19T06:20:57.090Z,0
2022-12-19T06:21:42.434Z,0
2022-12-19T06:22:18.867Z,0
2022-12-19T06:22:59.384Z,0
2022-12-19T06:25:13.600Z,0
2022-12-19T06:25:54.139Z,0
2022-12-19T06:26:34.646Z,0
2022-12-19T06:27:15.165Z,0
2022-12-19T06:27:56.417Z,0
2022-12-19T06:30:10.099Z,0
2022-12-19T06:30:50.468Z,0
2022-12-19T06:31:31.093Z,0
2022-12-19T06:32:11.501Z,0
2022-12-19T06:32:52.049Z,0
2022-12-19T06:33:32.582Z,0
2022-12-19T06:34:22.046Z,0
2022-12-19T06:35:03.876Z,0
2022-12-19T06:35:34.133Z,0
2022-12-19T06:36:14.648Z,0
2022-12-19T06:42:59.873Z,0
2022-12-19T06:43:40.384Z,0
2022-12-19T06:44:20.936Z,0
2022-12-19T06:45:01.421Z,0
2022-12-19T06:45:42.145Z,0
2022-12-19T06:46:22.442Z,0
2022-12-19T06:48:36.713Z,0
2022-12-19T06:49:17.992Z,0
2022-12-19T06:49:58.549Z,0
2022-12-19T06:50:39.962Z,4
2022-12-19T06:52:53.232Z,4
2022-12-19T06:53:33.766Z,0
2022-12-19T06:54:14.318Z,4
2022-12-19T06:54:54.872Z,4
2022-12-19T06:55:35.417Z,8
2022-12-19T06:56:15.972Z,8
2022-12-19T06:56:56.523Z,8
2022-12-19T06:57:37.276Z,8
2022-12-19T06:59:50.967Z,8
2022-12-19T07:00:31.527Z,12
2022-12-19T07:01:12.207Z,12
2022-12-19T07:01:52.752Z,16
2022-12-19T07:04:05.332Z,20
2022-12-19T07:04:45.875Z,20
2022-12-19T07:05:26.403Z,24
2022-12-19T07:06:06.893Z,28
2022-12-19T07:06:49.299Z,28
2022-12-19T07:07:27.943Z,32
2022-12-19T07:08:08.456Z,32
2022-12-19T07:10:25.638Z,44
2022-12-19T07:11:06.105Z,48
2022-12-19T07:11:46.628Z,52
2022-12-19T07:12:27.108Z,56
2022-12-19T07:13:07.635Z,60
2022-12-19T07:17:51.394Z,88
2022-12-19T07:18:35.788Z,96
2022-12-19T07:19:19.908Z,108
2022-12-19T07:20:02.123Z,116
2022-12-19T07:20:45.146Z,124
2022-12-19T07:21:23.225Z,140
2022-12-19T07:22:03.818Z,148
2022-12-19T07:22:44.330Z,156
2022-12-19T07:24:57.345Z,184
2022-12-19T07:25:37.904Z,192
2022-12-19T07:26:18.449Z,196
2022-12-19T07:26:59.007Z,204
2022-12-19T07:27:39.559Z,212
2022-12-19T07:28:20.100Z,220
2022-12-19T07:30:33.650Z,260
2022-12-19T07:31:14.248Z,268
2022-12-19T07:31:55.434Z,284
2022-12-19T07:32:35.820Z,296
2022-12-19T07:33:21.156Z,308
2022-12-19T07:35:29.372Z,356
2022-12-19T07:36:09.938Z,368
2022-12-19T07:36:50.485Z,372
2022-12-19T07:37:31.660Z,384
2022-12-19T07:38:12.202Z,396
2022-12-19T07:38:52.733Z,404
2022-12-19T07:39:33.300Z,416
2022-12-19T07:40:13.841Z,428
2022-12-19T07:42:30.849Z,452
2022-12-19T07:43:07.443Z,464
2022-12-19T07:43:47.963Z,468
2022-12-19T07:44:28.465Z,476
2022-12-19T07:45:09.016Z,476
2022-12-19T07:45:49.599Z,476
2022-12-19T07:46:30.031Z,476
2022-12-19T07:47:10.683Z,472
2022-12-19T07:47:51.117Z,472
2022-12-19T07:48:31.632Z,468
2022-12-19T07:55:16.890Z,648
2022-12-19T07:55:58.396Z,696
2022-12-19T07:56:38.907Z,748
2022-12-19T07:57:19.445Z,796
2022-12-19T07:58:00.480Z,848
2022-12-19T07:58:40.969Z,880
2022-12-19T07:59:25.780Z,908
2022-12-19T08:00:02.064Z,940
2022-12-19T08:05:23.539Z,1188
2022-12-19T08:06:04.042Z,1180
2022-12-19T08:06:44.583Z,1164
2022-12-19T08:07:25.093Z,1152
2022-12-19T08:08:05.605Z,1144
2022-12-19T08:10:37.816Z,1208
2022-12-19T08:11:19.237Z,1240
2022-12-19T08:12:01.323Z,1280
2022-12-19T08:12:41.838Z,1324
2022-12-19T08:14:57.240Z,1424
2022-12-19T08:15:35.389Z,1460
2022-12-19T08:16:15.994Z,1496
2022-12-19T08:17:19.628Z,1528
2022-12-19T08:17:37.099Z,1568
2022-12-19T08:18:17.691Z,1608
2022-12-19T08:18:58.073Z,1648
2022-12-19T08:19:38.590Z,1684
2022-12-19T08:20:19.114Z,1700
2022-12-19T08:20:59.637Z,1712
2022-12-19T08:27:44.948Z,1600
2022-12-19T08:28:25.474Z,1572
2022-12-19T08:29:06.012Z,1560
2022-12-19T08:29:46.567Z,1540
2022-12-19T08:30:27.101Z,1520
2022-12-19T08:31:08.460Z,1492
2022-12-19T08:31:48.879Z,1468
2022-12-19T08:32:29.414Z,1444
2022-12-19T08:33:09.961Z,1428
2022-12-19T08:39:14.796Z,1348
2022-12-19T08:39:55.290Z,1380
2022-12-19T08:40:35.802Z,1416
2022-12-19T08:41:16.333Z,1460
2022-12-19T08:43:29.079Z,1640
2022-12-19T08:44:09.661Z,1696
2022-12-19T08:44:50.214Z,1752
2022-12-19T08:45:30.727Z,1796
2022-12-19T08:47:43.815Z,1936
2022-12-19T08:48:24.343Z,1980
2022-12-19T08:49:05.030Z,2040
2022-12-19T08:49:45.453Z,2092
2022-12-19T08:50:26.792Z,2152
2022-12-19T08:51:07.357Z,2204
2022-12-19T08:51:47.881Z,2280
2022-12-19T08:52:28.402Z,2380
2022-12-19T08:57:53.462Z,2848
2022-12-19T08:58:34.072Z,2864
2022-12-19T08:59:14.878Z,2824
2022-12-19T08:59:55.674Z,2832
2022-12-19T09:00:36.789Z,2860
2022-12-19T09:01:17.492Z,2940
2022-12-19T09:01:57.956Z,3040
2022-12-19T09:02:38.608Z,3160
2022-12-19T09:05:59.138Z,3592
2022-12-19T09:06:18.980Z,3640
2022-12-19T09:06:57.836Z,3712
2022-12-19T09:07:38.738Z,3760
2022-12-19T09:08:18.883Z,3804
2022-12-19T09:08:59.869Z,3828
2022-12-19T09:09:39.933Z,3824
2022-12-19T09:10:20.458Z,3796
2022-12-19T09:11:00.994Z,3760
2022-12-19T09:11:48.078Z,3716
2022-12-19T09:17:06.713Z,3660
2022-12-19T09:17:47.162Z,3672
2022-12-19T09:18:27.671Z,3692
2022-12-19T09:19:08.192Z,3724
2022-12-19T09:19:48.755Z,3804
2022-12-19T09:20:29.309Z,3896
2022-12-19T09:21:09.892Z,4004
2022-12-19T09:21:50.409Z,4144
2022-12-19T09:24:07.607Z,4504
2022-12-19T09:24:43.687Z,4564
2022-12-19T09:25:24.217Z,4624
2022-12-19T09:26:04.732Z,4672
2022-12-19T09:26:45.290Z,4692
2022-12-19T09:27:25.831Z,4708
2022-12-19T09:28:47.648Z,4712
2022-12-19T09:34:13.741Z,4896
2022-12-19T09:34:55.057Z,5020
2022-12-19T09:35:36.362Z,5160
2022-12-19T09:37:50.967Z,5496
2022-12-19T09:38:29.939Z,5552
2022-12-19T09:39:10.426Z,5560
2022-12-19T09:39:50.979Z,5576
2022-12-19T09:40:31.502Z,5536
2022-12-19T09:41:12.050Z,5468
2022-12-19T09:43:25.320Z,5032
2022-12-19T09:44:05.848Z,4924
2022-12-19T09:44:46.375Z,4840
2022-12-19T09:45:32.307Z,4776
2022-12-19T09:46:07.508Z,4724
2022-12-19T09:46:47.986Z,4692
2022-12-19T09:47:28.499Z,4672
2022-12-19T09:48:09.017Z,4680
2022-12-19T09:48:54.434Z,4712
2022-12-19T09:49:30.044Z,4756
2022-12-19T09:56:15.469Z,5680
2022-12-19T09:56:56.009Z,5852
2022-12-19T09:57:36.528Z,6072
2022-12-19T09:58:17.038Z,6316
2022-12-19T09:58:57.584Z,6572
2022-12-19T09:59:41.638Z,6844
2022-12-19T10:00:18.626Z,7136
2022-12-19T10:00:59.903Z,7456
2022-12-19T10:01:39.824Z,7768
2022-12-19T10:02:21.444Z,8056
2022-12-19T10:07:16.506Z,8372
2022-12-19T10:08:05.324Z,8288
2022-12-19T10:08:26.180Z,8204
2022-12-19T10:09:20.689Z,8120
2022-12-19T10:10:32.036Z,8028
2022-12-19T10:11:26.043Z,7896
2022-12-19T10:12:34.403Z,7784
2022-12-19T10:12:37.023Z,7636
2022-12-19T10:12:41.689Z,7504
2022-12-19T10:14:42.107Z,7240
2022-12-19T10:15:22.641Z,7152
2022-12-19T10:16:03.186Z,7072
2022-12-19T10:16:52.103Z,7052
2022-12-19T10:17:25.243Z,7004
2022-12-19T10:18:04.762Z,6964
2022-12-19T10:18:47.493Z,6920
2022-12-19T10:19:25.840Z,6908
2022-12-19T10:20:06.398Z,6892
2022-12-19T10:22:24.050Z,6768
2022-12-19T10:23:10.240Z,6676
2022-12-19T10:23:53.035Z,6584
2022-12-19T10:26:30.134Z,6412
2022-12-19T10:27:08.178Z,6384
2022-12-19T10:27:57.261Z,6388
2022-12-19T10:28:33.086Z,6440
2022-12-19T10:30:46.241Z,6500
2022-12-19T10:31:26.798Z,6460
2022-12-19T10:32:07.344Z,6404
2022-12-19T10:32:47.856Z,6340
2022-12-19T10:33:28.387Z,6284
2022-12-19T10:34:08.934Z,6220
2022-12-19T10:34:50.775Z,6180
2022-12-19T10:37:20.998Z,6208
2022-12-19T10:37:49.238Z,6232
2022-12-19T10:38:25.365Z,6248
2022-12-19T10:39:05.960Z,6268
2022-12-19T10:39:46.479Z,6300
2022-12-19T10:41:44.460Z,6508
2022-12-19T10:42:25.070Z,6604
2022-12-19T10:43:06.531Z,6712
2022-12-19T10:43:47.774Z,6816
2022-12-19T10:46:01.381Z,7128
2022-12-19T10:46:41.890Z,7220
2022-12-19T10:47:22.376Z,7332
2022-12-19T10:48:02.924Z,7440
2022-12-19T10:50:18.221Z,7528
2022-12-19T10:51:00.686Z,7376
2022-12-19T10:51:42.984Z,7164
2022-12-19T10:52:26.745Z,6868
2022-12-19T10:53:08.080Z,6632
2022-12-19T10:53:49.203Z,6444
2022-12-19T10:56:24.378Z,6200
2022-12-19T10:57:04.605Z,6172
2022-12-19T10:57:45.167Z,6144
2022-12-19T10:58:25.720Z,6088
2022-12-19T10:59:06.785Z,6024
2022-12-19T10:59:46.812Z,5944
2022-12-19T11:00:27.366Z,5868
2022-12-19T11:01:08.872Z,5808
2022-12-19T11:07:10.551Z,6516
2022-12-19T11:07:53.004Z,6580
2022-12-19T11:08:33.492Z,6620
2022-12-19T11:09:15.782Z,6636
2022-12-19T11:12:30.038Z,6696
2022-12-19T11:13:11.928Z,6792
2022-12-19T11:15:22.968Z,6892
2022-12-19T11:15:44.216Z,6940
2022-12-19T11:16:14.278Z,6944
2022-12-19T11:17:27.384Z,6964
2022-12-19T11:18:53.143Z,7040
2022-12-19T11:20:28.192Z,7000
2022-12-19T11:21:33.373Z,6912
2022-12-19T11:22:19.068Z,6784
2022-12-19T11:25:53.795Z,6384
2022-12-19T11:26:20.797Z,6648
2022-12-19T11:26:35.163Z,6492
2022-12-19T11:27:34.436Z,6284
2022-12-19T11:29:28.114Z,6216
2022-12-19T11:30:23.093Z,5452
2022-12-19T11:32:10.156Z,5148
2022-12-19T11:32:29.605Z,5080
2022-12-19T11:32:39.329Z,5020
2022-12-19T11:33:05.340Z,4988
2022-12-19T11:35:39.907Z,4960
2022-12-19T11:36:21.348Z,4936
2022-12-19T11:37:01.870Z,4908
2022-12-19T11:37:42.928Z,4888
2022-12-19T11:39:40.830Z,4892
2022-12-19T11:40:21.355Z,4928
2022-12-19T11:41:01.887Z,4976
2022-12-19T11:41:42.519Z,5028
2022-12-19T11:42:23.141Z,5100
2022-12-19T11:43:41.767Z,5176
2022-12-19T11:43:46.010Z,5252
2022-12-19T11:44:25.394Z,5324
2022-12-19T11:45:05.910Z,5384
2022-12-19T11:50:30.706Z,5860
2022-12-19T11:51:11.226Z,6136
2022-12-19T11:51:51.738Z,6436
2022-12-19T11:54:04.821Z,6576
2022-12-19T11:54:45.390Z,6608
2022-12-19T11:55:25.940Z,6856
2022-12-19T11:56:08.043Z,6708
2022-12-19T11:56:46.986Z,6848
2022-12-19T11:57:27.589Z,6732
2022-12-19T11:58:08.654Z,6420
2022-12-19T11:58:49.191Z,6336
2022-12-19T11:59:29.705Z,6352
2022-12-19T12:04:10.426Z,6112
2022-12-19T12:04:50.915Z,6044
2022-12-19T12:05:31.407Z,5968
2022-12-19T12:06:13.594Z,5888
2022-12-19T12:09:20.526Z,5744
2022-12-19T12:11:03.712Z,5748
2022-12-19T12:12:00.427Z,5756
2022-12-19T12:12:42.254Z,5768
2022-12-19T12:18:07.493Z,5784
2022-12-19T12:18:56.791Z,5676
2022-12-19T12:19:23.193Z,5732
2022-12-19T12:21:00.227Z,5656
2022-12-19T12:22:17.638Z,5660
2022-12-19T12:22:48.226Z,5700
2022-12-19T12:23:59.187Z,5948
2022-12-19T12:24:25.770Z,5668
2022-12-19T12:29:05.436Z,5976
2022-12-19T12:30:09.135Z,5956
2022-12-19T12:31:03.411Z,5872
2022-12-19T12:31:03.447Z,5352
2022-12-19T12:31:33.523Z,5172
2022-12-19T12:31:34.326Z,5216
2022-12-19T12:31:35.679Z,5092
2022-12-19T12:31:36.467Z,5128
2022-12-19T12:31:36.528Z,5144
2022-12-19T12:31:36.803Z,5120
2022-12-19T12:38:07.347Z,5668
2022-12-19T12:38:36.119Z,5780
2022-12-19T12:39:18.261Z,5816
2022-12-19T12:39:56.476Z,5844
2022-12-19T12:40:37.075Z,5856
2022-12-19T12:41:17.580Z,5860
2022-12-19T12:41:58.100Z,5848
2022-12-19T12:42:38.631Z,5836
2022-12-19T12:43:19.178Z,5820
2022-12-19T12:50:04.638Z,6216
2022-12-19T12:50:49.907Z,6240
2022-12-19T12:51:26.508Z,6248
2022-12-19T12:53:39.735Z,6220
2022-12-19T12:54:20.259Z,6188
2022-12-19T12:55:00.814Z,6144
2022-12-19T12:55:41.389Z,6084
2022-12-19T12:56:21.912Z,6024
2022-12-19T12:58:36.489Z,5660
2022-12-19T12:59:17.042Z,5536
2022-12-19T12:59:58.568Z,5424
2022-12-19T13:00:40.688Z,5320
2022-12-19T13:01:21.290Z,5236
2022-12-19T13:04:40.373Z,4896
2022-12-19T13:05:20.891Z,4800
2022-12-19T13:06:01.423Z,4672
2022-12-19T13:06:41.953Z,4532
2022-12-19T13:09:15.363Z,4008
2022-12-19T13:09:55.881Z,3892
2022-12-19T13:10:36.431Z,3796
2022-12-19T13:11:16.987Z,3716
2022-12-19T13:11:57.531Z,3660
2022-12-19T13:14:10.846Z,3592
2022-12-19T13:14:51.100Z,3592
2022-12-19T13:15:31.659Z,3592
2022-12-19T13:16:12.274Z,3600
2022-12-19T13:16:53.059Z,3604
2022-12-19T13:19:08.210Z,3572
2022-12-19T13:19:46.790Z,3544
2022-12-19T13:20:29.231Z,3512
2022-12-19T13:21:09.791Z,3484
2022-12-19T13:21:50.250Z,3448
2022-12-19T13:22:30.779Z,3420
2022-12-19T13:24:43.911Z,3368
2022-12-19T13:25:24.739Z,3384
2022-12-19T13:26:05.055Z,3412
2022-12-19T13:26:45.557Z,3444
2022-12-19T13:27:26.138Z,3464
2022-12-19T13:28:07.600Z,3476
2022-12-19T13:28:48.127Z,3476
2022-12-19T13:31:20.208Z,3360
2022-12-19T13:31:57.961Z,3320
2022-12-19T13:32:38.469Z,3288
2022-12-19T13:33:19.026Z,3260
2022-12-19T13:33:59.565Z,3252
2022-12-19T13:34:42.371Z,3236
2022-12-19T13:35:55.069Z,3228
2022-12-19T13:38:29.585Z,3228
2022-12-19T13:39:45.285Z,3228
2022-12-19T13:39:52.806Z,3224
2022-12-19T13:41:27.050Z,3284
2022-12-19T13:42:07.605Z,3300
2022-12-19T13:42:48.171Z,3308
2022-12-19T13:43:28.723Z,3308
2022-12-19T13:44:09.326Z,3304
2022-12-19T13:44:49.855Z,3300
2022-12-19T13:45:30.381Z,3272
2022-12-19T13:46:10.998Z,3232
2022-12-19T13:46:51.480Z,3180
2022-12-19T13:47:32.010Z,3116
2022-12-19T13:50:10.437Z,2888
2022-12-19T13:50:50.968Z,2832
2022-12-19T13:51:31.517Z,2780
2022-12-19T13:52:12.082Z,2736
2022-12-19T13:52:54.467Z,2696
2022-12-19T13:53:35.009Z,2656
2022-12-19T13:54:15.570Z,2632
2022-12-19T13:59:40.452Z,2552
2022-12-19T14:00:20.933Z,2556
2022-12-19T14:01:01.555Z,2560
2022-12-19T14:01:42.120Z,2560
2022-12-19T14:02:22.878Z,2544
2022-12-19T14:03:03.318Z,2520
2022-12-19T14:03:43.643Z,2476
2022-12-19T14:04:24.048Z,2416
2022-12-19T14:06:36.870Z,2168
2022-12-19T14:07:17.385Z,2084
2022-12-19T14:07:57.948Z,2008
2022-12-19T14:08:40.263Z,1940
2022-12-19T14:11:26.580Z,1832
2022-12-19T14:12:09.648Z,1832
2022-12-19T14:13:48.485Z,1840
2022-12-19T14:13:49.168Z,1840
2022-12-19T14:13:58.739Z,1852
2022-12-19T14:18:51.056Z,1784
2022-12-19T14:19:31.598Z,1764
2022-12-19T14:21:14.836Z,1744
2022-12-19T14:22:08.310Z,1680
2022-12-19T14:22:08.325Z,1716
2022-12-19T14:22:17.762Z,1628
2022-12-19T14:22:55.651Z,1584
2022-12-19T14:28:29.013Z,1348
2022-12-19T14:29:01.843Z,1340
2022-12-19T14:30:02.375Z,1344
2022-12-19T14:30:27.149Z,1352
2022-12-19T14:31:03.988Z,1360
2022-12-19T14:31:58.509Z,1368
2022-12-19T14:33:41.292Z,1376
2022-12-19T14:33:41.431Z,1384
2022-12-19T14:34:04.534Z,1396
2022-12-19T14:39:26.067Z,1520
2022-12-19T14:39:37.356Z,1520
2022-12-19T14:40:17.892Z,1516
2022-12-19T14:41:07.674Z,1504
2022-12-19T14:41:38.924Z,1484
2022-12-19T14:42:19.478Z,1460
2022-12-19T14:43:55.933Z,1440
2022-12-19T14:43:56.115Z,1412
2022-12-19T14:50:02.458Z,1360
2022-12-19T14:50:20.027Z,1388
2022-12-19T14:54:19.180Z,1032
2022-12-19T14:54:19.224Z,972
2022-12-19T14:54:20.383Z,1000
2022-12-19T14:54:42.609Z,944
2022-12-19T14:55:36.205Z,900
2022-12-19T14:56:03.634Z,872
2022-12-19T14:57:11.737Z,824
2022-12-19T15:02:37.093Z,640
2022-12-19T15:03:17.672Z,620
2022-12-19T15:04:47.480Z,600
2022-12-19T15:04:49.984Z,580
2022-12-19T15:05:19.171Z,556
2022-12-19T15:05:59.661Z,536
2022-12-19T15:08:13.531Z,468
2022-12-19T15:09:02.743Z,448
2022-12-19T15:11:01.271Z,428
2022-12-19T15:11:02.261Z,412
2022-12-19T15:12:56.681Z,356
2022-12-19T15:13:46.862Z,340
2022-12-19T15:14:49.808Z,324
2022-12-19T15:14:55.616Z,308
2022-12-19T15:15:01.387Z,296
2022-12-19T15:15:42.585Z,276
2022-12-19T15:16:23.296Z,264
2022-12-19T15:17:03.584Z,252
2022-12-19T15:22:29.047Z,172
2022-12-19T15:23:09.564Z,164
2022-12-19T15:23:50.074Z,152
2022-12-19T15:24:30.599Z,148
2022-12-19T15:25:28.744Z,144
2022-12-19T15:26:08.115Z,136
2022-12-19T15:26:32.162Z,136
2022-12-19T15:28:45.712Z,124
2022-12-19T15:29:26.270Z,120
2022-12-19T15:30:08.361Z,116
2022-12-19T15:30:48.967Z,112
2022-12-19T15:33:04.323Z,96
2022-12-19T15:34:07.042Z,96
2022-12-19T15:34:48.643Z,88
2022-12-19T15:35:05.911Z,84
2022-12-19T15:35:46.472Z,80
2022-12-19T15:36:26.961Z,72
2022-12-19T15:37:07.461Z,68
2022-12-19T15:37:48.581Z,64
2022-12-19T15:41:53.121Z,40
2022-12-19T15:42:33.627Z,32
2022-12-19T15:43:30.103Z,32
2022-12-19T15:44:03.949Z,32
2022-12-19T15:44:35.169Z,28
2022-12-19T15:45:15.695Z,24
2022-12-19T15:45:56.210Z,24
2022-12-19T15:46:39.952Z,20
2022-12-19T15:47:17.294Z,20
2022-12-19T15:47:57.791Z,16
2022-12-19T15:48:38.549Z,16